Time;durP1;ratioP1;P1;durP2;ratioP2;P2;SDS_P1;SDS_P2;PMS_P1;PMS_P2;Temp;Humidity;BMP_temperature;BMP_pressure;BME280_temperature;BME280_humidity;BME280_pressure;Samples;Min_cycle;Max_cycle;Signal;HPM_P1;HPM_P2
2024/02/16 00:00:25;;;;;;;52.95;29.92;;;128.70;2252.80;;;;;;4827458;29;20065;-70
2024/02/16 00:02:51;;;;;;;55.88;34.78;;;128.70;2252.80;;;;;;4839674;29;20034;-71
2024/02/16 00:05:17;;;;;;;70.50;39.00;;;128.70;2252.80;;;;;;4839090;29;20038;-73
2024/02/16 00:07:43;;;;;;;71.75;43.35;;;128.80;2252.80;;;;;;4839406;29;20022;-71
2024/02/16 00:10:09;;;;;;;98.45;59.13;;;128.80;2252.80;;;;;;4827210;29;20493;-70
2024/02/16 00:12:36;;;;;;;104.75;63.53;;;128.80;2252.80;;;;;;4839177;29;20042;-72
2024/02/16 00:15:04;;;;;;;56.83;34.30;;;128.90;2252.80;;;;;;4838035;29;20056;-71
2024/02/16 00:17:30;;;;;;;36.33;20.60;;;128.80;2252.80;;;;;;4838332;29;20086;-71
2024/02/16 00:19:57;;;;;;;29.05;15.45;;;128.60;2252.80;;;;;;4838111;29;20407;-70
2024/02/16 00:22:22;;;;;;;26.52;15.50;;;128.40;2252.80;;;;;;4837325;29;20558;-70
2024/02/16 00:24:48;;;;;;;23.77;14.13;;;128.20;2252.80;;;;;;4832610;29;20113;-71
2024/02/16 00:27:15;;;;;;;30.50;16.05;;;103.30;2227.20;;;;;;4822120;29;20033;-71
2024/02/16 00:29:41;;;;;;;25.42;16.58;;;128.00;2252.80;;;;;;4833499;29;20048;-72
2024/02/16 00:32:07;;;;;;;19.35;13.05;;;128.00;2252.80;;;;;;4831844;29;20117;-73
2024/02/16 00:34:35;;;;;;;20.05;14.95;;;103.30;2227.20;;;;;;4836665;29;20034;-70
2024/02/16 00:37:01;;;;;;;36.65;21.20;;;128.00;2252.80;;;;;;4833119;29;20030;-71
2024/02/16 00:39:27;;;;;;;31.65;21.17;;;128.00;2252.80;;;;;;4838675;29;20034;-72
2024/02/16 00:41:53;;;;;;;28.42;17.67;;;103.30;2227.20;;;;;;4838230;29;20038;-73
2024/02/16 00:44:19;;;;;;;40.83;23.40;;;128.00;2252.80;;;;;;4838064;29;20018;-71
2024/02/16 00:46:45;;;;;;;35.47;21.23;;;128.00;2252.80;;;;;;4840860;29;20049;-71
2024/02/16 00:49:11;;;;;;;29.95;18.83;;;128.00;2252.80;;;;;;4837871;29;20030;-71
2024/02/16 00:51:37;;;;;;;31.67;20.17;;;128.10;2252.80;;;;;;4836135;29;20042;-71
2024/02/16 00:54:03;;;;;;;28.75;18.38;;;128.10;2252.80;;;;;;4837397;29;20057;-72
2024/02/16 00:56:32;;;;;;;25.80;17.17;;;128.10;2252.80;;;;;;4835677;29;20034;-71
2024/02/16 00:58:58;;;;;;;29.63;17.92;;;128.10;2252.80;;;;;;4836857;29;20041;-69
2024/02/16 01:01:26;;;;;;;34.80;19.05;;;128.10;2252.80;;;;;;4836226;29;20022;-71
2024/02/16 01:03:52;;;;;;;32.63;21.60;;;128.10;2252.80;;;;;;4838725;29;20370;-75
2024/02/16 01:06:19;;;;;;;36.75;23.13;;;128.00;2252.80;;;;;;4825518;29;20033;-71
2024/02/16 01:08:46;;;;;;;33.88;23.60;;;128.10;2252.80;;;;;;4821319;29;20121;-72
2024/02/16 01:11:12;;;;;;;24.55;13.57;;;128.10;2252.80;;;;;;4824752;29;20414;-71
2024/02/16 01:13:40;;;;;;;18.65;12.90;;;128.10;2252.80;;;;;;4821824;29;20067;-71
2024/02/16 01:16:06;;;;;;;16.83;11.65;;;128.00;2252.80;;;;;;4823802;29;20030;-72
2024/02/16 01:18:32;;;;;;;26.52;13.18;;;103.30;2227.20;;;;;;4823935;29;20029;-72
2024/02/16 01:20:58;;;;;;;26.08;15.75;;;103.30;2227.20;;;;;;4826380;29;20101;-72
2024/02/16 01:23:24;;;;;;;31.90;16.88;;;103.20;2227.20;;;;;;4823767;29;20026;-72
2024/02/16 01:25:50;;;;;;;48.42;29.30;;;103.10;2227.20;;;;;;4822509;29;20505;-71
2024/02/16 01:28:16;;;;;;;52.15;44.10;;;103.30;2227.20;;;;;;4824623;29;20041;-71
2024/02/16 01:30:42;;;;;;;35.97;20.15;;;103.20;2227.20;;;;;;4838213;29;20034;-71
2024/02/16 01:33:08;;;;;;;122.03;70.53;;;103.30;2227.20;;;;;;4836971;29;20042;-71
2024/02/16 01:35:34;;;;;;;65.45;37.17;;;103.30;2227.20;;;;;;4838100;29;20481;-73
2024/02/16 01:38:01;;;;;;;44.47;26.13;;;103.30;2227.20;;;;;;4830547;29;20030;-72
2024/02/16 01:40:27;;;;;;;36.55;23.25;;;103.30;2227.20;;;;;;4833489;29;20108;-71
2024/02/16 01:42:53;;;;;;;31.30;19.02;;;103.30;2227.20;;;;;;4838204;29;20065;-71
2024/02/16 01:45:20;;;;;;;23.05;13.88;;;103.30;2227.20;;;;;;4838105;29;20067;-72
2024/02/16 01:47:49;;;;;;;22.98;15.68;;;103.30;2227.20;;;;;;4830353;29;20058;-71
2024/02/16 01:50:16;;;;;;;100.13;63.40;;;103.30;2227.20;;;;;;4834376;29;20037;-72
2024/02/16 01:52:46;;;;;;;75.40;46.50;;;103.30;2227.20;;;;;;4836213;29;20109;-70
2024/02/16 01:55:12;;;;;;;65.38;40.45;;;103.30;2227.20;;;;;;4837604;29;20069;-72
2024/02/16 01:57:43;;;;;;;40.47;25.27;;;103.30;2227.20;;;;;;4837648;29;20485;-72
2024/02/16 02:00:09;;;;;;;21.25;13.38;;;103.30;2227.20;;;;;;4837646;29;20030;-72
2024/02/16 02:02:38;;;;;;;22.65;14.15;;;103.30;2227.20;;;;;;4837820;29;20038;-71
2024/02/16 02:05:04;;;;;;;15.50;8.52;;;103.30;2227.20;;;;;;4837850;29;20440;-72
2024/02/16 02:07:30;;;;;;;23.77;13.02;;;103.30;2227.20;;;;;;4837793;29;20026;-72
2024/02/16 02:09:56;;;;;;;18.75;12.15;;;103.20;2227.20;;;;;;4837748;29;20044;-71
2024/02/16 02:12:22;;;;;;;42.60;27.00;;;103.30;2227.20;;;;;;4840899;29;20021;-73
2024/02/16 02:14:49;;;;;;;23.75;14.40;;;103.20;2227.20;;;;;;4846503;29;20457;-71
2024/02/16 02:17:16;;;;;;;15.27;11.35;;;103.20;2227.20;;;;;;4837863;29;20025;-72
2024/02/16 02:19:42;;;;;;;14.23;9.13;;;103.10;2227.20;;;;;;4837809;29;20026;-71
2024/02/16 02:22:27;;;;;;;26.02;15.07;;;103.00;2227.20;;;;;;4837676;29;20029;-71
2024/02/16 02:24:55;;;;;;;26.45;14.90;;;103.00;2227.20;;;;;;4836363;29;20046;-72
2024/02/16 02:27:21;;;;;;;48.90;26.27;;;103.00;2227.20;;;;;;4837871;29;20474;-74
2024/02/16 02:29:47;;;;;;;40.80;25.35;;;102.80;2227.20;;;;;;4839673;29;20037;-74
2024/02/16 02:32:13;;;;;;;41.03;27.15;;;102.80;2227.20;;;;;;4841525;29;20022;-79
2024/02/16 02:34:39;;;;;;;37.05;23.83;;;102.70;2227.20;;;;;;4841208;29;20046;-75
2024/02/16 02:37:05;;;;;;;27.85;18.75;;;102.70;2227.20;;;;;;4841031;29;20644;-77
2024/02/16 02:39:32;;;;;;;26.50;15.68;;;102.70;2227.20;;;;;;4841093;29;20030;-75
2024/02/16 02:41:58;;;;;;;35.30;19.80;;;102.80;2227.20;;;;;;4841068;29;20033;-72
2024/02/16 02:44:25;;;;;;;39.00;25.65;;;102.80;2227.20;;;;;;4840941;29;20151;-70
2024/02/16 02:46:51;;;;;;;34.22;23.42;;;102.80;2227.20;;;;;;4841153;29;20057;-70
2024/02/16 02:49:17;;;;;;;32.50;22.58;;;102.80;2227.20;;;;;;4840952;29;20385;-71
2024/02/16 02:51:43;;;;;;;31.48;22.83;;;102.90;2227.20;;;;;;4840672;29;20409;-73
2024/02/16 02:54:09;;;;;;;17.95;10.77;;;102.90;2227.20;;;;;;4840729;29;20069;-70
2024/02/16 02:56:35;;;;;;;12.55;7.25;;;103.00;2227.20;;;;;;4841065;29;20116;-71
2024/02/16 02:59:01;;;;;;;20.58;12.73;;;103.00;2227.20;;;;;;4847781;29;20036;-79
2024/02/16 03:01:27;;;;;;;23.88;11.95;;;103.00;2227.20;;;;;;4845897;29;20034;-78
2024/02/16 03:03:52;;;;;;;11.38;7.40;;;103.00;2227.20;;;;;;4840706;29;20381;-78
2024/02/16 03:06:23;;;;;;;11.35;6.90;;;102.90;2227.20;;;;;;4840528;29;20033;-78
2024/02/16 03:08:48;;;;;;;12.80;6.78;;;102.80;2227.20;;;;;;4840641;29;20473;-78
2024/02/16 03:11:14;;;;;;;14.23;9.68;;;102.70;2227.20;;;;;;4840658;29;20113;-77
2024/02/16 03:13:40;;;;;;;18.27;10.93;;;102.70;2227.20;;;;;;4840161;29;20128;-76
2024/02/16 03:16:06;;;;;;;16.08;9.40;;;102.60;2227.20;;;;;;4840404;29;20106;-75
2024/02/16 03:18:34;;;;;;;11.27;8.82;;;102.50;2227.20;;;;;;4840754;29;20374;-76
2024/02/16 03:21:00;;;;;;;12.25;7.57;;;102.40;2227.20;;;;;;4823950;29;20050;-79
2024/02/16 03:23:26;;;;;;;13.50;6.72;;;102.40;2227.20;;;;;;4840079;29;20034;-75
2024/02/16 03:25:51;;;;;;;30.20;18.17;;;77.70;2227.20;;;;;;4840487;29;20041;-74
2024/02/16 03:28:17;;;;;;;30.15;16.88;;;102.50;2227.20;;;;;;4840288;29;20036;-78
2024/02/16 03:30:44;;;;;;;23.05;12.95;;;102.60;2227.20;;;;;;4840263;29;20150;-79
2024/02/16 03:33:10;;;;;;;23.70;14.18;;;102.60;2227.20;;;;;;4840286;29;20116;-78
2024/02/16 03:35:36;;;;;;;21.95;12.63;;;102.70;2227.20;;;;;;4823419;29;20468;-77
2024/02/16 03:38:03;;;;;;;19.30;10.50;;;102.50;2227.20;;;;;;4840009;29;20092;-78
2024/02/16 03:40:29;;;;;;;17.23;7.13;;;102.60;2227.20;;;;;;4839627;29;20111;-75
2024/02/16 03:42:55;;;;;;;9.95;6.43;;;102.60;2227.20;;;;;;4839921;29;20113;-74
2024/02/16 03:45:22;;;;;;;11.15;7.57;;;102.60;2227.20;;;;;;4840150;29;20468;-75
2024/02/16 03:47:48;;;;;;;13.40;8.00;;;102.50;2227.20;;;;;;4840192;29;20034;-77
2024/02/16 03:50:14;;;;;;;15.75;10.88;;;77.70;2227.20;;;;;;4839987;29;20462;-80
2024/02/16 03:52:40;;;;;;;15.00;9.35;;;77.60;2227.20;;;;;;4839657;29;20038;-78
2024/02/16 03:55:07;;;;;;;20.05;11.18;;;77.60;2227.20;;;;;;4839441;29;20057;-75
2024/02/16 03:57:33;;;;;;;17.80;11.88;;;77.50;2227.20;;;;;;4839784;29;20064;-75
2024/02/16 03:59:59;;;;;;;18.48;12.57;;;77.40;2227.20;;;;;;4839444;29;20062;-75
2024/02/16 04:02:25;;;;;;;23.77;13.45;;;77.10;2227.20;;;;;;4839926;29;20086;-73
2024/02/16 04:04:51;;;;;;;18.88;14.07;;;76.90;2227.20;;;;;;4840017;29;20058;-72
2024/02/16 04:07:17;;;;;;;16.48;10.38;;;77.20;2227.20;;;;;;4839809;29;20072;-77
2024/02/16 04:09:43;;;;;;;15.23;8.85;;;77.30;2227.20;;;;;;4839654;29;20049;-78
2024/02/16 04:12:10;;;;;;;11.45;7.68;;;77.40;2227.20;;;;;;4837729;29;20031;-79
2024/02/16 04:14:36;;;;;;;12.55;6.68;;;77.50;2227.20;;;;;;4831315;29;20145;-77
2024/02/16 04:17:01;;;;;;;9.57;6.07;;;77.60;2227.20;;;;;;4842520;29;20117;-78
2024/02/16 04:19:27;;;;;;;9.70;6.63;;;77.70;2227.20;;;;;;4839033;29;20042;-75
2024/02/16 04:21:53;;;;;;;16.35;10.40;;;77.70;2227.20;;;;;;4839493;29;20030;-78
2024/02/16 04:24:19;;;;;;;20.33;10.38;;;77.70;2227.20;;;;;;4839059;29;20046;-76
2024/02/16 04:26:45;;;;;;;13.48;8.52;;;77.60;2227.20;;;;;;4839587;29;20037;-78
2024/02/16 04:29:11;;;;;;;24.60;12.82;;;77.50;2227.20;;;;;;4839272;29;20405;-71
2024/02/16 04:31:42;;;;;;;27.50;17.48;;;77.50;2227.20;;;;;;4839068;29;20045;-72
2024/02/16 04:34:08;;;;;;;21.05;14.38;;;77.40;2227.20;;;;;;4851225;29;20067;-71
2024/02/16 04:36:34;;;;;;;32.85;17.92;;;77.40;2227.20;;;;;;4839086;29;20045;-73
2024/02/16 04:39:01;;;;;;;27.27;13.55;;;77.40;2227.20;;;;;;4838795;29;20543;-72
2024/02/16 04:41:27;;;;;;;21.98;12.07;;;77.40;2227.20;;;;;;4838991;29;20026;-70
2024/02/16 04:43:54;;;;;;;19.35;11.45;;;77.40;2227.20;;;;;;4838655;29;20026;-70
2024/02/16 04:46:21;;;;;;;22.65;12.63;;;77.40;2227.20;;;;;;4839090;29;20045;-70
2024/02/16 04:48:46;;;;;;;27.42;16.15;;;77.50;2227.20;;;;;;4838802;29;20026;-70
2024/02/16 04:51:12;;;;;;;34.10;20.25;;;77.50;2227.20;;;;;;4839001;29;20037;-70
2024/02/16 04:53:38;;;;;;;16.17;9.25;;;77.50;2227.20;;;;;;4837306;29;20060;-71
2024/02/16 04:56:04;;;;;;;25.50;11.52;;;77.40;2227.20;;;;;;4839370;29;20064;-71
2024/02/16 04:58:31;;;;;;;45.80;21.77;;;77.50;2227.20;;;;;;4839037;29;20154;-76
2024/02/16 05:00:57;;;;;;;54.75;31.27;;;77.40;2227.20;;;;;;4838913;29;20454;-76
2024/02/16 05:03:23;;;;;;;46.47;24.70;;;77.50;2227.20;;;;;;4839073;29;20097;-78
2024/02/16 05:05:48;;;;;;;31.17;16.70;;;77.60;2227.20;;;;;;4838757;29;20101;-72
2024/02/16 05:08:14;;;;;;;25.20;14.10;;;77.60;2227.20;;;;;;4850945;29;20526;-73
2024/02/16 05:10:40;;;;;;;18.67;10.73;;;77.60;2227.20;;;;;;4838527;29;20033;-71
2024/02/16 05:13:06;;;;;;;22.52;13.43;;;77.50;2227.20;;;;;;4838479;29;20071;-72
2024/02/16 05:15:32;;;;;;;20.83;14.75;;;77.50;2227.20;;;;;;4838563;29;20026;-71
2024/02/16 05:17:58;;;;;;;24.52;13.68;;;77.40;2227.20;;;;;;4838149;29;20102;-70
2024/02/16 05:20:25;;;;;;;14.40;10.13;;;77.40;2227.20;;;;;;4838635;29;20483;-71
2024/02/16 05:22:51;;;;;;;17.33;11.05;;;77.40;2227.20;;;;;;4821654;29;20033;-72
2024/02/16 05:25:20;;;;;;;18.35;10.40;;;77.40;2227.20;;;;;;4838280;29;20496;-71
2024/02/16 05:27:47;;;;;;;35.63;20.00;;;77.40;2227.20;;;;;;4838207;29;20038;-74
2024/02/16 05:30:15;;;;;;;47.17;22.67;;;77.40;2227.20;;;;;;4838453;29;20449;-70
2024/02/16 05:32:41;;;;;;;36.15;20.95;;;77.40;2227.20;;;;;;4837917;29;20158;-70
2024/02/16 05:35:11;;;;;;;18.05;10.13;;;77.40;2227.20;;;;;;4837985;29;20140;-71
2024/02/16 05:37:45;;;;;;;20.02;10.52;;;77.40;2227.20;;;;;;4837710;29;20037;-72
2024/02/16 05:40:30;;;;;;;16.02;10.32;;;77.40;2227.20;;;;;;4838102;29;20029;-72
2024/02/16 05:43:00;;;;;;;18.92;12.07;;;77.40;2227.20;;;;;;4838232;29;20034;-69
2024/02/16 05:45:26;;;;;;;13.35;8.88;;;77.20;2227.20;;;;;;4837598;29;20078;-70
2024/02/16 05:47:52;;;;;;;13.80;11.80;;;77.30;2227.20;;;;;;4838275;29;20026;-71
2024/02/16 05:50:20;;;;;;;13.18;7.63;;;77.40;2227.20;;;;;;4837642;29;20034;-71
2024/02/16 05:52:46;;;;;;;13.50;9.23;;;77.40;2227.20;;;;;;4837849;29;20174;-71
2024/02/16 05:55:13;;;;;;;14.93;8.35;;;77.40;2227.20;;;;;;4843116;29;20058;-72
2024/02/16 05:57:39;;;;;;;24.88;14.52;;;77.40;2227.20;;;;;;4821058;29;20121;-75
2024/02/16 06:00:06;;;;;;;17.27;10.60;;;77.40;2227.20;;;;;;4834370;29;20037;-74
2024/02/16 06:02:32;;;;;;;16.85;11.20;;;77.40;2227.20;;;;;;4832016;29;20397;-71
2024/02/16 06:04:59;;;;;;;20.20;14.52;;;77.40;2227.20;;;;;;4840470;29;20091;-74
2024/02/16 06:07:25;;;;;;;49.22;24.38;;;77.40;2227.20;;;;;;4841789;29;20050;-75
2024/02/16 06:09:51;;;;;;;24.65;15.15;;;77.50;2227.20;;;;;;4841981;29;20026;-75
2024/02/16 06:12:17;;;;;;;22.02;12.43;;;77.60;2227.20;;;;;;4841978;29;20491;-74
2024/02/16 06:14:43;;;;;;;22.50;14.10;;;77.70;2227.20;;;;;;4841011;29;20106;-74
2024/02/16 06:17:09;;;;;;;42.40;25.88;;;102.40;2227.20;;;;;;4841594;29;20450;-75
2024/02/16 06:19:37;;;;;;;34.63;18.65;;;102.40;2227.20;;;;;;4841443;29;20066;-74
2024/02/16 06:22:03;;;;;;;45.03;28.13;;;102.50;2227.20;;;;;;4841499;29;20400;-75
2024/02/16 06:24:29;;;;;;;31.10;18.08;;;102.50;2227.20;;;;;;4829543;29;20114;-77
2024/02/16 06:26:55;;;;;;;25.10;15.95;;;102.60;2227.20;;;;;;4841797;29;20065;-76
2024/02/16 06:29:21;;;;;;;30.83;17.55;;;102.60;2227.20;;;;;;4841275;29;20496;-76
2024/02/16 06:31:50;;;;;;;64.85;42.38;;;102.60;2227.20;;;;;;4841155;29;20062;-77
2024/02/16 06:34:16;;;;;;;73.78;44.67;;;102.70;2227.20;;;;;;4828987;29;20580;-78
2024/02/16 06:36:42;;;;;;;73.63;47.90;;;102.70;2227.20;;;;;;4841435;29;20105;-76
2024/02/16 06:39:10;;;;;;;69.90;41.28;;;102.80;2227.20;;;;;;4840898;29;20022;-77
2024/02/16 06:41:37;;;;;;;52.65;30.20;;;102.90;2227.20;;;;;;4833175;29;20027;-74
2024/02/16 06:44:03;;;;;;;36.97;21.75;;;102.90;2227.20;;;;;;4831253;29;20113;-75
2024/02/16 06:46:29;;;;;;;23.98;15.90;;;102.90;2227.20;;;;;;4827498;29;20113;-75
2024/02/16 06:48:58;;;;;;;16.50;10.13;;;102.90;2227.20;;;;;;4822448;29;20122;-75
2024/02/16 06:51:25;;;;;;;17.77;10.38;;;103.00;2227.20;;;;;;4833758;29;20027;-77
2024/02/16 06:53:51;;;;;;;16.38;11.20;;;103.10;2227.20;;;;;;4840438;29;20165;-75
2024/02/16 06:56:18;;;;;;;26.38;21.02;;;103.10;2227.20;;;;;;4840496;29;20430;-76
2024/02/16 06:58:45;;;;;;;17.17;11.95;;;103.10;2227.20;;;;;;4831900;29;20038;-78
2024/02/16 07:01:12;;;;;;;48.78;30.10;;;103.20;2227.20;;;;;;4828358;29;20492;-78
2024/02/16 07:03:38;;;;;;;149.10;94.72;;;103.10;2227.20;;;;;;4834603;29;20105;-75
2024/02/16 07:06:07;;;;;;;187.73;117.35;;;103.20;2227.20;;;;;;4829732;29;20109;-75
2024/02/16 07:08:33;;;;;;;198.85;121.53;;;103.30;2227.20;;;;;;4832704;29;20037;-76
2024/02/16 07:10:59;;;;;;;156.65;104.38;;;103.30;2227.20;;;;;;4826543;29;20019;-75
2024/02/16 07:13:25;;;;;;;122.53;81.13;;;128.10;2252.80;;;;;;4843381;29;20108;-78
2024/02/16 07:15:51;;;;;;;104.25;66.43;;;128.20;2252.80;;;;;;4841732;29;20022;-77
2024/02/16 07:18:16;;;;;;;62.10;38.38;;;128.30;2252.80;;;;;;4839671;29;20033;-77
2024/02/16 07:20:42;;;;;;;56.85;39.50;;;128.40;2252.80;;;;;;4840049;29;20437;-77
2024/02/16 07:23:10;;;;;;;34.85;23.67;;;128.40;2252.80;;;;;;4838442;29;20959;-77
2024/02/16 07:25:36;;;;;;;28.77;16.70;;;128.50;2252.80;;;;;;4831981;29;20501;-79
2024/02/16 07:28:02;;;;;;;17.27;11.50;;;128.60;2252.80;;;;;;4839063;29;20495;-79
2024/02/16 07:30:28;;;;;;;26.45;21.42;;;128.60;2252.80;;;;;;4839300;29;20037;-77
2024/02/16 07:32:54;;;;;;;16.65;10.90;;;128.70;2252.80;;;;;;4840130;29;20042;-77
2024/02/16 07:35:21;;;;;;;15.45;11.82;;;128.80;2252.80;;;;;;4818940;29;20038;-76
2024/02/16 07:37:47;;;;;;;16.58;10.73;;;128.90;2252.80;;;;;;4828783;29;20043;-76
2024/02/16 07:40:13;;;;;;;15.55;11.32;;;128.90;2252.80;;;;;;4833468;29;20255;-77
2024/02/16 07:42:40;;;;;;;17.77;13.10;;;153.60;2252.80;;;;;;4839356;29;20137;-77
2024/02/16 07:45:06;;;;;;;17.75;11.60;;;153.70;2252.80;;;;;;4833107;29;20751;-77
2024/02/16 07:47:32;;;;;;;18.15;12.13;;;179.50;2252.80;;;;;;4839146;29;20418;-77
2024/02/16 07:49:58;;;;;;;19.92;13.18;;;256.80;2252.80;;;;;;4838988;29;20037;-77
2024/02/16 07:52:24;;;;;;;17.30;13.20;;;307.90;2304.00;;;;;;4839628;29;20037;-78
2024/02/16 07:54:51;;;;;;;13.98;11.13;;;359.10;2176.00;;;;;;4837436;29;20049;-78
2024/02/16 07:57:17;;;;;;;18.13;12.35;;;409.70;2048.00;;;;;;4823077;29;20052;-76
2024/02/16 07:59:43;;;;;;;20.13;16.40;;;435.80;1920.00;;;;;;4831605;29;20465;-78
2024/02/16 08:02:09;;;;;;;17.42;12.13;;;460.90;1817.60;;;;;;4837920;29;20036;-79
2024/02/16 08:04:41;;;;;;;17.13;15.27;;;461.40;1792.00;;;;;;4830363;29;20030;-77
2024/02/16 08:07:06;;;;;;;28.98;22.98;;;512.10;1664.00;;;;;;4825591;29;20053;-76
2024/02/16 08:09:33;;;;;;;35.03;28.45;;;537.90;1612.80;;;;;;4835784;29;20027;-75
2024/02/16 08:11:59;;;;;;;44.75;37.78;;;538.50;1587.20;;;;;;4827041;29;20024;-78
2024/02/16 08:14:25;;;;;;;43.05;38.03;;;563.60;1561.60;;;;;;4839137;29;20071;-75
2024/02/16 08:16:51;;;;;;;46.55;41.22;;;589.20;1510.40;;;;;;4838718;29;20098;-75
2024/02/16 08:19:17;;;;;;;60.60;50.08;;;;;;;;;;4839002;29;20057;-77
2024/02/16 08:21:44;;;;;;;66.55;58.35;;;;;;;;;;4838971;29;20026;-75
2024/02/16 08:24:10;;;;;;;51.85;45.55;;;;;;;;;;4838715;29;20477;-76
2024/02/16 08:26:36;;;;;;;77.32;67.90;;;614.80;1408.00;;;;;;4836131;29;20042;-76
2024/02/16 08:29:02;;;;;;;49.90;43.70;;;;;;;;;;4835698;29;20026;-76
2024/02/16 08:31:28;;;;;;;32.63;27.58;;;;;;;;;;4833537;29;20029;-77
2024/02/16 08:33:54;;;;;;;29.70;26.75;;;;;;;;;;4834870;29;20533;-79
2024/02/16 08:36:21;;;;;;;32.97;28.27;;;589.10;1459.20;;;;;;4836356;29;20034;-76
2024/02/16 08:38:47;;;;;;;25.58;22.98;;;589.70;1433.60;;;;;;4833407;29;20031;-76
2024/02/16 08:41:12;;;;;;;26.02;23.30;;;614.70;1408.00;;;;;;4838280;29;20026;-76
2024/02/16 08:43:39;;;;;;;36.35;31.30;;;640.10;1356.80;;;;;;4827217;29;20037;-76
2024/02/16 08:46:05;;;;;;;78.53;65.75;;;;;;;;;;4835739;29;20029;-76
2024/02/16 08:48:33;;;;;;;63.42;56.17;;;564.00;1484.80;;;;;;4830023;29;20034;-79
2024/02/16 08:50:58;;;;;;;47.55;42.42;;;614.50;1433.60;;;;;;4842472;29;20037;-75
2024/02/16 08:53:24;;;;;;;56.17;50.05;;;614.60;1408.00;;;;;;4834408;29;20054;-76
2024/02/16 08:55:50;;;;;;;46.28;41.47;;;;;;;;;;4821006;29;20035;-80
2024/02/16 08:58:16;;;;;;;56.40;47.65;;;640.40;1356.80;;;;;;4824731;29;20113;-77
2024/02/16 09:00:42;;;;;;;35.90;32.10;;;640.70;1331.20;;;;;;4833088;29;20233;-80
2024/02/16 09:03:08;;;;;;;38.35;31.73;;;640.00;1331.20;;;;;;4832045;29;20140;-76
2024/02/16 09:05:34;;;;;;;38.22;34.15;;;;;;;;;;4837891;29;20049;-75
2024/02/16 09:08:02;;;;;;;105.07;78.57;;;;;;;;;;4836847;29;20034;-77
2024/02/16 09:10:27;;;;;;;200.15;149.00;;;640.90;1331.20;;;;;;4825188;29;20572;-78
2024/02/16 09:12:53;;;;;;;61.05;49.30;;;666.00;1331.20;;;;;;4826756;29;20074;-78
2024/02/16 09:15:19;;;;;;;123.60;87.80;;;691.20;1305.60;;;;;;4832641;29;20109;-80
2024/02/16 09:17:44;;;;;;;30.63;25.30;;;691.80;1254.40;;;;;;4826215;29;20038;-77
2024/02/16 09:20:11;;;;;;;242.00;156.45;;;640.40;1331.20;;;;;;4838136;29;20462;-78
2024/02/16 09:22:38;;;;;;;79.43;58.10;;;666.50;1280.00;;;;;;4837659;29;20487;-78
2024/02/16 09:25:05;;;;;;;81.38;60.45;;;691.70;1228.80;;;;;;4832212;29;20473;-77
2024/02/16 09:27:31;;;;;;;51.88;45.75;;;640.40;1331.20;;;;;;4822844;29;20048;-79
2024/02/16 09:29:57;;;;;;;35.22;29.23;;;589.40;1408.00;;;;;;4834435;29;20465;-80
2024/02/16 09:32:22;;;;;;;39.15;35.22;;;563.60;1484.80;;;;;;4831572;29;20037;-82
2024/02/16 09:34:48;;;;;;;39.42;35.20;;;538.10;1484.80;;;;;;4835795;29;20077;-83
2024/02/16 09:37:15;;;;;;;29.70;25.83;;;538.40;1510.40;;;;;;4833891;29;20022;-81
2024/02/16 09:39:41;;;;;;;37.13;31.02;;;537.60;1510.40;;;;;;4832265;29;20121;-84
2024/02/16 09:42:06;;;;;;;40.53;34.53;;;461.50;1638.40;;;;;;4833472;29;20525;-81
2024/02/16 09:44:36;;;;;;;41.17;35.85;;;461.00;1689.60;;;;;;4839684;29;20113;-82
2024/02/16 09:47:03;;;;;;;32.28;28.27;;;435.30;1740.80;;;;;;4838014;29;20699;-81
2024/02/16 09:49:29;;;;;;;34.38;28.60;;;410.00;1792.00;;;;;;4833595;29;20057;-82
2024/02/16 09:51:59;;;;;;;36.65;28.55;;;384.90;1817.60;;;;;;4836497;29;20066;-82
2024/02/16 09:54:25;;;;;;;28.98;22.70;;;384.80;1817.60;;;;;;4837690;29;20058;-82
2024/02/16 09:56:51;;;;;;;32.92;21.27;;;384.90;1817.60;;;;;;4838339;29;20087;-81
2024/02/16 09:59:16;;;;;;;25.52;18.83;;;384.30;1843.20;;;;;;4837755;29;20037;-80
2024/02/16 10:01:43;;;;;;;31.95;26.80;;;384.00;1894.40;;;;;;4829908;29;20026;-76
2024/02/16 10:04:09;;;;;;;30.90;22.98;;;384.10;1894.40;;;;;;4825457;29;20042;-78
2024/02/16 10:06:49;;;;;;;30.70;22.52;;;384.30;1894.40;;;;;;4827378;29;20082;-77
2024/02/16 10:09:26;;;;;;;28.45;21.35;;;384.30;1894.40;;;;;;4835108;29;20524;-76
2024/02/16 10:11:52;;;;;;;26.05;17.33;;;358.80;1945.60;;;;;;4834477;29;20030;-77
2024/02/16 10:14:20;;;;;;;22.23;14.27;;;359.00;1945.60;;;;;;4830128;29;20449;-76
2024/02/16 10:16:58;;;;;;;27.80;19.92;;;358.80;1945.60;;;;;;4837630;29;20063;-77
2024/02/16 10:19:24;;;;;;;23.13;14.13;;;358.90;1945.60;;;;;;4830400;29;20026;-77
2024/02/16 10:21:50;;;;;;;32.53;22.63;;;359.00;1945.60;;;;;;4837441;29;20029;-76
2024/02/16 10:24:21;;;;;;;22.52;15.75;;;384.00;1920.00;;;;;;4837995;29;20364;-77
2024/02/16 10:26:47;;;;;;;20.08;14.68;;;384.20;1920.00;;;;;;4837794;29;20109;-77
2024/02/16 10:29:19;;;;;;;23.67;15.98;;;384.40;1894.40;;;;;;4838034;29;20508;-78
2024/02/16 10:31:45;;;;;;;19.67;12.63;;;359.10;1945.60;;;;;;4825970;29;20026;-79
2024/02/16 10:34:11;;;;;;;20.25;13.98;;;359.10;1945.60;;;;;;4837561;29;20066;-77
2024/02/16 10:36:38;;;;;;;19.85;13.10;;;359.00;1945.60;;;;;;4837677;29;20426;-76
2024/02/16 10:39:05;;;;;;;30.20;20.63;;;359.30;1920.00;;;;;;4830802;29;20037;-78
2024/02/16 10:41:37;;;;;;;43.88;26.65;;;384.10;1894.40;;;;;;4825470;29;20025;-76
2024/02/16 10:44:05;;;;;;;36.22;22.25;;;384.30;1894.40;;;;;;4836416;29;20034;-76
2024/02/16 10:46:32;;;;;;;11.48;7.43;;;384.20;1894.40;;;;;;4837585;29;20093;-79
2024/02/16 10:48:58;;;;;;;11.90;8.20;;;359.30;1894.40;;;;;;4837308;29;20064;-77
2024/02/16 10:51:35;;;;;;;8.48;5.85;;;359.10;1920.00;;;;;;4839203;29;20018;-79
2024/02/16 10:54:07;;;;;;;39.92;26.35;;;359.30;1894.40;;;;;;4841829;29;20046;-76
2024/02/16 10:56:34;;;;;;;14.73;10.65;;;384.30;1894.40;;;;;;4830842;29;20030;-79
2024/02/16 10:59:04;;;;;;;13.45;9.88;;;359.20;1894.40;;;;;;4840536;29;20034;-79
2024/02/16 11:01:59;;;;;;;18.02;13.13;;;359.20;1920.00;;;;;;4840750;29;20044;-77
2024/02/16 11:04:25;;;;;;;7.05;5.95;;;359.30;1894.40;;;;;;4840832;29;20030;-76
2024/02/16 11:06:56;;;;;;;54.47;36.03;;;359.10;1894.40;;;;;;4840478;29;20022;-77
2024/02/16 11:09:38;;;;;;;108.15;68.97;;;384.10;1894.40;;;;;;4840714;29;20029;-79
2024/02/16 11:12:08;;;;;;;15.98;9.85;;;384.30;1920.00;;;;;;4829491;29;20380;-79
2024/02/16 11:14:48;;;;;;;14.52;10.43;;;384.40;1894.40;;;;;;4840577;29;20041;-77
2024/02/16 11:17:19;;;;;;;10.60;6.80;;;384.30;1894.40;;;;;;4840822;29;20109;-80
2024/02/16 11:19:47;;;;;;;21.60;14.73;;;359.30;1894.40;;;;;;4832387;29;20074;-79
2024/02/16 11:22:19;;;;;;;19.90;13.13;;;384.10;1920.00;;;;;;4823558;29;20392;-78
2024/02/16 11:24:50;;;;;;;13.63;10.10;;;359.30;1945.60;;;;;;4816045;29;20133;-75
2024/02/16 11:27:21;;;;;;;31.27;19.35;;;359.00;1945.60;;;;;;4840479;29;20537;-78
2024/02/16 11:29:47;;;;;;;42.13;29.02;;;384.10;1945.60;;;;;;4840260;29;20030;-77
2024/02/16 11:32:13;;;;;;;15.55;12.02;;;384.20;1945.60;;;;;;4840465;29;20019;-76
2024/02/16 11:34:39;;;;;;;14.32;12.63;;;384.10;1920.00;;;;;;4840125;29;20544;-76
2024/02/16 11:37:05;;;;;;;38.10;25.40;;;384.10;1945.60;;;;;;4840050;29;20665;-79
2024/02/16 11:39:31;;;;;;;28.17;18.73;;;384.30;1920.00;;;;;;4838884;29;20026;-78
2024/02/16 11:42:10;;;;;;;22.90;16.63;;;384.40;1920.00;;;;;;4839915;29;20101;-76
2024/02/16 11:44:39;;;;;;;13.40;9.25;;;384.30;1920.00;;;;;;4840044;29;20045;-78
2024/02/16 11:47:12;;;;;;;14.32;10.00;;;384.10;1920.00;;;;;;4840095;29;20029;-78
2024/02/16 11:49:38;;;;;;;15.30;10.63;;;384.30;1945.60;;;;;;4839802;29;20105;-76
2024/02/16 11:52:04;;;;;;;17.67;12.57;;;384.50;1920.00;;;;;;4840102;29;20069;-77
2024/02/16 11:54:31;;;;;;;48.55;30.77;;;384.60;1894.40;;;;;;4839481;29;20479;-77
2024/02/16 11:56:58;;;;;;;24.08;16.90;;;384.80;1894.40;;;;;;4835598;29;20031;-79
2024/02/16 11:59:24;;;;;;;22.95;15.30;;;384.40;1920.00;;;;;;4836735;29;20034;-75
2024/02/16 12:01:54;;;;;;;17.70;9.85;;;384.60;1920.00;;;;;;4839450;29;20080;-76
2024/02/16 12:04:28;;;;;;;19.95;11.60;;;384.40;1894.40;;;;;;4832399;29;20046;-77